Home > Products > Valid Products > MTR

000
SAUS43 KDTX 300254
MTRP58
METAR KP58 300251Z AUTO 26003KT 17/14 A2992 RMK AO1 SLP129 T01670144
51005





000
SAUS43 KDTX 300153
MTRP58
METAR KP58 300151Z AUTO 00000KT 17/14 A2991 RMK AO1 SLP126 T01720144





000
SAUS43 KDTX 300052
MTRP58
METAR KP58 300051Z AUTO 10004KT 18/16 A2991 RMK AO1 SLP126 T01780161





000
SAUS43 KDTX 292354
MTRP58
METAR KP58 292351Z AUTO 12007KT 18/16 A2990 RMK AO1 SLP124 T01830156
10211 20183 53001





000
SAUS43 KDTX 292254
MTRP58
METAR KP58 292251Z AUTO 11008KT 19/15 A2990 RMK AO1 SLP124 T01890150





000
SAUS43 KDTX 292152
MTRP58
METAR KP58 292151Z AUTO 11006KT 18/14 A2990 RMK AO1 SLP123 T01830144





000
SAUS43 KDTX 292054
MTRP58
METAR KP58 292051Z AUTO 04003KT 19/14 A2990 RMK AO1 SLP123 T01940139
58005





000
SAUS43 KDTX 291954
MTRP58
METAR KP58 291951Z AUTO 00000KT 21/14 A2991 RMK AO1 SLP125 T02060139





000
SAUS43 KDTX 291854
MTRP58
METAR KP58 291851Z AUTO VRB03KT 20/14 A2991 RMK AO1 SLP125 T02000144





000
SAUS43 KDTX 291754
MTRP58
METAR KP58 291751Z AUTO 23006KT 18/13 A2992 RMK AO1 SLP128 60002
T01830133 10189 20139 58006





000
SAUS43 KDTX 291653
MTRP58
METAR KP58 291651Z AUTO 25006KT 17/13 A2992 RMK AO1 SLP130 T01720133





000
SAUS43 KDTX 291554
MTRP58
METAR KP58 291551Z AUTO 27008KT 230V310 17/13 A2993 RMK AO1 SLP132
T01720128





000
SAUS43 KDTX 291454
MTRP58
METAR KP58 291451Z AUTO 23004KT 16/13 A2993 RMK AO1 SLP134 P0002
60002 T01560133





000
SAUS43 KDTX 291354
MTRP58
METAR KP58 291351Z AUTO 24005KT 15/12 A2994 RMK AO1 SLP134 T01500122





000
SAUS43 KDTX 291254
MTRP58
METAR KP58 291251Z AUTO VRB05KT 15/12 A2994 RMK AO1 SLP134 T01500117





000
SAUS43 KDTX 291152
MTRP58
METAR KP58 291151Z AUTO 24005KT 14/11 A2993 RMK AO1 SLP134 T01390111
10139 20106 52003





000
SAUS43 KDTX 291053
MTRP58
METAR KP58 291051Z AUTO 23005KT 12/11 A2993 RMK AO1 SLP133 T01220106





000
SAUS43 KDTX 290954
MTRP58
METAR KP58 290951Z AUTO 24006KT 11/10 A2993 RMK AO1 SLP134 T01110100





000
SAUS43 KDTX 290854
MTRP58
METAR KP58 290851Z AUTO 25004KT 12/10 A2992 RMK AO1 SLP131 T01170100
56005





000
SAUS43 KDTX 290752
MTRP58
METAR KP58 290751Z AUTO 25004KT 11/09 A2993 RMK AO1 SLP133 T01110094





000
SAUS43 KDTX 290654
MTRP58
METAR KP58 290651Z AUTO 27005KT 13/09 A2993 RMK AO1 SLP133 T01330094





000
SAUS43 KDTX 290552
MTRP58
METAR KP58 290551Z AUTO 27005KT 13/09 A2994 RMK AO1 SLP136 T01330089
10167 20133 57009





000
SAUS43 KDTX 290454
MTRP58
METAR KP58 290451Z AUTO VRB05KT 16/09 A2995 RMK AO1 SLP138 T01560094
401830150





000
SAUS43 KDTX 290353
MTRP58
METAR KP58 290351Z AUTO VRB06KT 16/09 A2996 RMK AO1 SLP142 T01610094





000
SAUS43 KDTX 290252
MTRP58
METAR KP58 290251Z AUTO 31006KT 16/09 A2996 RMK AO1 SLP144 T01610094





000
SAUS43 KDTX 290154
MTRP58
METAR KP58 290151Z AUTO VRB03KT 16/09 A2996 RMK AO1 SLP144 T01610094





000
SAUS43 KDTX 290054
MTRP58
METAR KP58 290051Z AUTO 32003KT 16/09 A2996 RMK AO1 SLP141 T01610089





000
SAUS43 KDTX 282354
MTRP58
METAR KP58 282351Z AUTO VRB03KT 16/09 A2996 RMK AO1 SLP144 T01610094
10172 20156 51001





000
SAUS43 KDTX 282254
MTRP58
METAR KP58 282251Z AUTO VRB03KT 17/10 A2996 RMK AO1 SLP143 T01670100





000
SAUS43 KDTX 282154
MTRP58
METAR KP58 282151Z AUTO VRB03KT 17/09 A2996 RMK AO1 SLP142 T01670094





000
SAUS43 KDTX 282054
MTRP58
METAR KP58 282051Z AUTO VRB03KT 17/09 A2996 RMK AO1 SLP141 T01670094
51004





000
SAUS43 KDTX 281953
MTRP58
METAR KP58 281951Z AUTO 00000KT 16/09 A2996 RMK AO1 SLP141 T01610094





000
SAUS43 KDTX 281852
MTRP58
METAR KP58 281851Z AUTO 00000KT 17/10 A2995 RMK AO1 SLP138 T01720100





000
SAUS43 KDTX 281753
MTRP58
METAR KP58 281751Z AUTO 00000KT 16/10 A2995 RMK AO1 SLP137 T01610100
10167 20150





000
SAUS43 KDTX 281652
MTRP58
METAR KP58 281651Z AUTO 16/10 A2994 RMK AO1 SLP134 T01610100





000
SAUS43 KDTX 281552
MTRP58
METAR KP58 281551Z AUTO 16/11 A2992 RMK AO1 SLP129 T01610106





000
SAUS43 KDTX 281454
MTRP58
METAR KP58 281451Z AUTO VRB06G18KT 16/11 A2990 RMK AO1 SLP123
T01560106 51021





000
SAUS43 KDTX 281353
MTRP58
METAR KP58 281351Z AUTO 36011G20KT 16/11 A2989 RMK AO1 SLP117
T01560106 $





000
SAUS43 KDTX 281254
MTRP58
METAR KP58 281251Z AUTO 01016G24KT 16/11 A2987 RMK AO1 SLP110
T01560106 $





000
SAUS43 KDTX 281153
MTRP58
METAR KP58 281151Z AUTO 01015G24KT 16/11 A2984 RMK AO1 PK WND
02026/1056 SLP102 60001 70142 T01560111 10178 20156 51024 $





000
SAUS43 KDTX 281054
MTRP58
METAR KP58 281051Z AUTO 01017G23KT 16/12 A2982 RMK AO1 PK WND
02031/1002 SLP096 T01560117 $





000
SAUS43 KDTX 280952
MTRP58
METAR KP58 280951Z AUTO 02017G32KT 16/12 A2979 RMK AO1 PK WND
02032/0942 SLP086 T01610122 $





000
SAUS43 KDTX 280854
MTRP58
METAR KP58 280851Z AUTO 02017G27KT 17/13 A2977 RMK AO1 PK WND
03034/0808 SLP077 60001 T01670128 53019 $





000
SAUS43 KDTX 280753
MTRP58
METAR KP58 280751Z AUTO 02019G28KT 18/13 A2974 RMK AO1 PK WND
02028/0742 SLP067 T01780133





000
SAUS43 KDTX 280653
MTRP58
METAR KP58 280651Z AUTO VRB03G16KT 18/16 A2972 RMK AO1 SLP061 P0001
T01780156





000
SAUS43 KDTX 280553
MTRP58
METAR KP58 280551Z AUTO 02013G19KT 17/16 A2971 RMK AO1 SLP057 60035
T01720156 10183 20172 53007





000
SAUS43 KDTX 280453
MTRP58
METAR KP58 280451Z AUTO 02015G20KT 18/16 A2970 RMK AO1 SLP053 P0020
T01780161 402330156





000
SAUS43 KDTX 280354
MTRP58
METAR KP58 280351Z AUTO 01011G15KT 18/16 A2969 RMK AO1 SLP049 P0014
T01780161





000
SAUS43 KDTX 280257 COR
MTRP58
METAR KP58 280251Z AUTO VRB06KT 17/16 A2969 RMK AO1 SLP048 P0001
60001 T01720161 50019





000
SAUS43 KDTX 280254 COR
MTRP58
METAR KP58 280251Z AUTO VRB06KT 17/16 A2969 RMK AO1 SLP048 P0001
60001 T01720161 50019





000
SAUS43 KDTX 280153
MTRP58
METAR KP58 280151Z AUTO 03010KT 17/16 A2969 RMK AO1 SLP049 T01720161





000
SAUS43 KDTX 280053
MTRP58
METAR KP58 280051Z AUTO 02015KT 17/16 A2967 RMK AO1 PRESRR SLP040
T01720161





000
SAUS43 KDTX 272353
MTRP58
METAR KP58 272351Z AUTO 08008KT 18/17 A2963 RMK AO1 SLP030 P0008
60106 T01780167 10206 20156 50001





000
SAUS43 KDTX 272253
MTRP58
METAR KP58 272251Z AUTO 07006KT 17/16 A2968 RMK AO1 SLP047 P0004
T01720156





000
SAUS43 KDTX 272154
MTRP58
METAR KP58 272151Z AUTO VRB05KT 17/17 A2968 RMK AO1 SLP046 P0093
T01720167





000
SAUS43 KDTX 272053
MTRP58
METAR KP58 272051Z AUTO 01013G22KT 18/16 A2963 RMK AO1 SLP029 P0001
60001 T01830156 56023





000
SAUS43 KDTX 271953
MTRP58
METAR KP58 271951Z AUTO 11008KT 20/18 A2964 RMK AO1 SLP031 T02000183





000
SAUS43 KDTX 271854
MTRP58
METAR KP58 271851Z AUTO 09005KT 20/18 A2966 RMK AO1 SLP040 T02000183





000
SAUS43 KDTX 271754
MTRP58
METAR KP58 271751Z AUTO 05006KT 20/18 A2970 RMK AO1 SLP050 T02000178
10233 20194 58008





000
SAUS43 KDTX 271654
MTRP58
METAR KP58 271651Z AUTO 09008KT 21/18 A2971 RMK AO1 SLP052 T02060178





000
SAUS43 KDTX 271553
MTRP58
METAR KP58 271551Z AUTO 04008KT 21/17 A2973 RMK AO1 SLP059 T02060172





000
SAUS43 KDTX 271453
MTRP58
METAR KP58 271451Z AUTO 00000KT 22/18 A2972 RMK AO1 SLP057 T02170183
53007





000
SAUS43 KDTX 271353
MTRP58
METAR KP58 271351Z AUTO 29003KT 22/18 A2970 RMK AO1 SLP048 T02220183





000
SAUS43 KDTX 271254
MTRP58
METAR KP58 271251Z AUTO 00000KT 21/18 A2969 RMK AO1 SLP047 T02110178





000
SAUS43 KDTX 271152
MTRP58
METAR KP58 271151Z AUTO VRB03KT 20/17 A2970 RMK AO1 SLP051 70006
T02000172 10211 20183 56010





000
SAUS43 KDTX 271054
MTRP58
METAR KP58 271051Z AUTO 25005KT 18/17 A2971 RMK AO1 SLP055 T01830167





000
SAUS43 KDTX 270954
MTRP58
METAR KP58 270951Z AUTO VRB03KT 18/17 A2972 RMK AO1 SLP058 T01830167





000
SAUS43 KDTX 270854
MTRP58
METAR KP58 270851Z AUTO 27003KT 19/17 A2973 RMK AO1 SLP061 T01940172
50002





000
SAUS43 KDTX 270752
MTRP58
METAR KP58 270751Z AUTO 28003KT 19/17 A2974 RMK AO1 SLP064 T01940172





000
SAUS43 KDTX 270654
MTRP58
METAR KP58 270651Z AUTO 28006KT 20/17 A2973 RMK AO1 SLP060 T02000172





000
SAUS43 KDTX 270554
MTRP58
METAR KP58 270551Z AUTO 28007KT 21/17 A2972 RMK AO1 SLP058 T02110167
10228 20211 56005





000
SAUS43 KDTX 270452
MTRP58
METAR KP58 270451Z AUTO 27008KT 250V320 22/18 A2973 RMK AO1 SLP059
T02220178 402390178





000
SAUS43 KDTX 270353
MTRP58
METAR KP58 270351Z AUTO VRB05KT 22/18 A2973 RMK AO1 SLP061 T02170183





    US Dept of Commerce
    National Oceanic and Atmospheric Administration
    National Weather Service
    1325 East West Highway
    Silver Spring, MD 20910
    Page Author: NWS Internet Services Team
Disclaimer
Information Quality
Credits
Glossary
Privacy Policy
Freedom of Information Act (FOIA)
About Us
Career Opportunities